sensor_id;sensor_type;location;lat;lon;timestamp;pressure;altitude;pressure_sealevel;temperature;humidity
47913;BME280;33676;51.006;17.180;2023-09-19T00:05:23;99451.33;;;21.14;84.64
47913;BME280;33676;51.006;17.180;2023-09-19T00:26:45;99460.92;;;20.58;86.40
47913;BME280;33676;51.006;17.180;2023-09-19T01:05:52;99451.47;;;20.02;89.39
47913;BME280;33676;51.006;17.180;2023-09-19T01:08:20;99453.59;;;19.91;89.77
47913;BME280;33676;51.006;17.180;2023-09-19T01:10:59;99456.21;;;19.81;90.18
47913;BME280;33676;51.006;17.180;2023-09-19T01:40:20;99441.49;;;20.10;91.30
47913;BME280;33676;51.006;17.180;2023-09-19T02:04:49;99454.59;;;19.93;91.36
47913;BME280;33676;51.006;17.180;2023-09-19T02:13:55;99453.48;;;19.66;92.24
47913;BME280;33676;51.006;17.180;2023-09-19T02:19:38;99453.71;;;19.56;92.63
47913;BME280;33676;51.006;17.180;2023-09-19T02:22:06;99467.40;;;19.53;92.90
47913;BME280;33676;51.006;17.180;2023-09-19T02:55:08;99440.11;;;19.87;93.46
47913;BME280;33676;51.006;17.180;2023-09-19T02:57:37;99438.73;;;19.79;93.50
47913;BME280;33676;51.006;17.180;2023-09-19T03:00:09;99438.81;;;19.72;93.84
47913;BME280;33676;51.006;17.180;2023-09-19T03:02:41;99439.36;;;19.65;93.94
47913;BME280;33676;51.006;17.180;2023-09-19T03:05:10;99439.81;;;19.58;94.05
47913;BME280;33676;51.006;17.180;2023-09-19T03:07:39;99435.90;;;19.53;94.09
47913;BME280;33676;51.006;17.180;2023-09-19T03:10:09;99438.30;;;19.47;94.35
47913;BME280;33676;51.006;17.180;2023-09-19T03:12:37;99432.46;;;19.42;94.48
47913;BME280;33676;51.006;17.180;2023-09-19T03:15:08;99430.47;;;19.37;94.57
47913;BME280;33676;51.006;17.180;2023-09-19T03:17:44;99430.65;;;19.33;94.63
47913;BME280;33676;51.006;17.180;2023-09-19T03:20:14;99426.58;;;19.29;94.75
47913;BME280;33676;51.006;17.180;2023-09-19T03:22:45;99430.36;;;19.25;94.85
47913;BME280;33676;51.006;17.180;2023-09-19T03:25:43;99429.63;;;19.23;94.91
47913;BME280;33676;51.006;17.180;2023-09-19T03:28:12;99431.29;;;19.18;95.03
47913;BME280;33676;51.006;17.180;2023-09-19T03:58:51;99442.20;;;19.49;94.66
47913;BME280;33676;51.006;17.180;2023-09-19T04:01:19;99438.83;;;19.39;94.80
47913;BME280;33676;51.006;17.180;2023-09-19T04:03:48;99444.70;;;19.31;94.94
47913;BME280;33676;51.006;17.180;2023-09-19T04:06:18;99442.14;;;19.23;95.32
47913;BME280;33676;51.006;17.180;2023-09-19T04:08:46;99442.91;;;19.19;95.57
47913;BME280;33676;51.006;17.180;2023-09-19T04:11:15;99448.44;;;19.14;95.82
47913;BME280;33676;51.006;17.180;2023-09-19T04:13:44;99453.59;;;19.08;95.98
47913;BME280;33676;51.006;17.180;2023-09-19T04:16:12;99451.21;;;19.02;96.53
47913;BME280;33676;51.006;17.180;2023-09-19T04:18:42;99445.65;;;18.90;98.05
47913;BME280;33676;51.006;17.180;2023-09-19T04:21:10;99453.96;;;18.89;99.24
47913;BME280;33676;51.006;17.180;2023-09-19T04:23:47;99451.14;;;18.97;100.00
47913;BME280;33676;51.006;17.180;2023-09-19T04:26:16;99453.73;;;19.06;100.00
47913;BME280;33676;51.006;17.180;2023-09-19T04:28:44;99453.85;;;19.05;99.77
47913;BME280;33676;51.006;17.180;2023-09-19T04:31:14;99456.17;;;18.98;98.89
47913;BME280;33676;51.006;17.180;2023-09-19T04:33:48;99447.91;;;18.92;98.37
47913;BME280;33676;51.006;17.180;2023-09-19T04:36:16;99444.60;;;18.87;98.20
47913;BME280;33676;51.006;17.180;2023-09-19T04:39:25;99440.20;;;18.84;98.07
47913;BME280;33676;51.006;17.180;2023-09-19T04:41:54;99444.05;;;18.80;98.00
47913;BME280;33676;51.006;17.180;2023-09-19T04:44:23;99443.91;;;18.77;98.03
47913;BME280;33676;51.006;17.180;2023-09-19T04:46:51;99444.30;;;18.76;98.18
47913;BME280;33676;51.006;17.180;2023-09-19T04:49:19;99444.00;;;18.74;98.20
47913;BME280;33676;51.006;17.180;2023-09-19T04:51:48;99446.20;;;18.72;98.39
47913;BME280;33676;51.006;17.180;2023-09-19T04:54:16;99451.88;;;18.69;98.11
47913;BME280;33676;51.006;17.180;2023-09-19T04:56:46;99452.88;;;18.67;98.29
47913;BME280;33676;51.006;17.180;2023-09-19T04:59:15;99453.22;;;18.64;98.50
47913;BME280;33676;51.006;17.180;2023-09-19T05:01:44;99459.38;;;18.63;98.43
47913;BME280;33676;51.006;17.180;2023-09-19T05:04:12;99462.72;;;18.62;98.58
47913;BME280;33676;51.006;17.180;2023-09-19T05:06:41;99467.63;;;18.62;98.82
47913;BME280;33676;51.006;17.180;2023-09-19T05:09:14;99470.82;;;18.64;98.90
47913;BME280;33676;51.006;17.180;2023-09-19T05:11:43;99472.59;;;18.65;99.19
47913;BME280;33676;51.006;17.180;2023-09-19T05:14:12;99475.48;;;18.67;99.28
47913;BME280;33676;51.006;17.180;2023-09-19T05:16:40;99473.81;;;18.69;99.33
47913;BME280;33676;51.006;17.180;2023-09-19T05:19:14;99469.77;;;18.70;99.36
47913;BME280;33676;51.006;17.180;2023-09-19T05:21:43;99471.91;;;18.70;99.41
47913;BME280;33676;51.006;17.180;2023-09-19T05:24:11;99474.55;;;18.72;99.49
47913;BME280;33676;51.006;17.180;2023-09-19T05:26:42;99475.95;;;18.72;99.55
47913;BME280;33676;51.006;17.180;2023-09-19T05:29:10;99479.66;;;18.72;99.54
47913;BME280;33676;51.006;17.180;2023-09-19T05:31:39;99481.58;;;18.72;99.62
47913;BME280;33676;51.006;17.180;2023-09-19T05:34:09;99481.83;;;18.73;99.70
47913;BME280;33676;51.006;17.180;2023-09-19T05:36:38;99485.96;;;18.71;99.58
47913;BME280;33676;51.006;17.180;2023-09-19T05:39:07;99490.73;;;18.71;99.75
47913;BME280;33676;51.006;17.180;2023-09-19T05:41:37;99494.78;;;18.71;99.96
47913;BME280;33676;51.006;17.180;2023-09-19T05:44:08;99503.43;;;18.69;100.00
47913;BME280;33676;51.006;17.180;2023-09-19T05:46:42;99502.20;;;18.69;100.00
47913;BME280;33676;51.006;17.180;2023-09-19T06:02:13;99508.70;;;19.24;100.00
47913;BME280;33676;51.006;17.180;2023-09-19T06:04:42;99506.67;;;19.33;100.00
47913;BME280;33676;51.006;17.180;2023-09-19T06:07:10;99511.81;;;19.30;100.00
47913;BME280;33676;51.006;17.180;2023-09-19T06:09:39;99513.02;;;19.29;100.00
47913;BME280;33676;51.006;17.180;2023-09-19T06:12:08;99511.44;;;19.29;100.00
47913;BME280;33676;51.006;17.180;2023-09-19T06:14:36;99514.19;;;19.31;100.00
47913;BME280;33676;51.006;17.180;2023-09-19T06:17:04;99518.28;;;19.32;100.00
47913;BME280;33676;51.006;17.180;2023-09-19T06:19:34;99523.79;;;19.35;100.00
47913;BME280;33676;51.006;17.180;2023-09-19T06:22:03;99528.42;;;19.38;100.00
47913;BME280;33676;51.006;17.180;2023-09-19T06:28:04;99536.81;;;19.43;100.00
47913;BME280;33676;51.006;17.180;2023-09-19T06:30:33;99539.20;;;19.46;100.00
47913;BME280;33676;51.006;17.180;2023-09-19T06:33:03;99541.33;;;19.50;100.00
47913;BME280;33676;51.006;17.180;2023-09-19T06:35:35;99544.53;;;19.54;100.00
47913;BME280;33676;51.006;17.180;2023-09-19T06:38:04;99549.88;;;19.60;100.00
47913;BME280;33676;51.006;17.180;2023-09-19T06:40:34;99558.54;;;19.64;100.00
47913;BME280;33676;51.006;17.180;2023-09-19T06:43:04;99560.54;;;19.68;100.00
47913;BME280;33676;51.006;17.180;2023-09-19T06:45:33;99565.72;;;19.73;100.00
47913;BME280;33676;51.006;17.180;2023-09-19T06:48:02;99562.20;;;19.76;100.00
47913;BME280;33676;51.006;17.180;2023-09-19T06:50:31;99563.70;;;19.81;100.00
47913;BME280;33676;51.006;17.180;2023-09-19T06:53:01;99563.15;;;19.86;100.00
47913;BME280;33676;51.006;17.180;2023-09-19T06:55:30;99569.73;;;19.91;100.00
47913;BME280;33676;51.006;17.180;2023-09-19T06:58:01;99573.90;;;19.97;100.00
47913;BME280;33676;51.006;17.180;2023-09-19T07:00:29;99579.55;;;20.03;100.00
47913;BME280;33676;51.006;17.180;2023-09-19T07:03:07;99583.01;;;20.09;100.00
47913;BME280;33676;51.006;17.180;2023-09-19T07:05:42;99584.59;;;20.16;100.00
47913;BME280;33676;51.006;17.180;2023-09-19T07:08:11;99584.99;;;20.22;100.00
47913;BME280;33676;51.006;17.180;2023-09-19T07:10:42;99587.17;;;20.28;100.00
47913;BME280;33676;51.006;17.180;2023-09-19T07:13:17;99594.95;;;20.32;100.00
47913;BME280;33676;51.006;17.180;2023-09-19T07:15:46;99602.73;;;20.36;100.00
47913;BME280;33676;51.006;17.180;2023-09-19T07:18:16;99599.77;;;20.40;100.00
47913;BME280;33676;51.006;17.180;2023-09-19T07:20:48;99600.09;;;20.47;100.00
47913;BME280;33676;51.006;17.180;2023-09-19T07:23:20;99599.30;;;20.53;100.00
47913;BME280;33676;51.006;17.180;2023-09-19T07:25:50;99603.42;;;20.60;100.00
47913;BME280;33676;51.006;17.180;2023-09-19T07:28:18;99604.88;;;20.66;100.00
47913;BME280;33676;51.006;17.180;2023-09-19T07:30:47;99609.48;;;20.70;100.00
47913;BME280;33676;51.006;17.180;2023-09-19T07:33:16;99617.56;;;20.73;100.00
47913;BME280;33676;51.006;17.180;2023-09-19T07:35:48;99618.55;;;20.74;100.00
47913;BME280;33676;51.006;17.180;2023-09-19T07:38:16;99620.97;;;20.73;100.00
47913;BME280;33676;51.006;17.180;2023-09-19T07:40:46;99620.46;;;20.73;100.00
47913;BME280;33676;51.006;17.180;2023-09-19T07:43:14;99619.61;;;20.74;99.94
47913;BME280;33676;51.006;17.180;2023-09-19T07:45:43;99619.05;;;20.77;99.87
47913;BME280;33676;51.006;17.180;2023-09-19T07:48:12;99620.75;;;20.83;99.73
47913;BME280;33676;51.006;17.180;2023-09-19T07:50:43;99630.36;;;20.91;99.66
47913;BME280;33676;51.006;17.180;2023-09-19T07:53:12;99632.80;;;20.97;99.35
47913;BME280;33676;51.006;17.180;2023-09-19T07:55:45;99635.23;;;21.04;99.47
47913;BME280;33676;51.006;17.180;2023-09-19T07:58:16;99637.67;;;21.13;99.40
47913;BME280;33676;51.006;17.180;2023-09-19T08:00:45;99636.23;;;21.22;99.18
47913;BME280;33676;51.006;17.180;2023-09-19T08:03:14;99642.97;;;21.25;98.72
47913;BME280;33676;51.006;17.180;2023-09-19T08:05:46;99649.33;;;21.25;98.73
47913;BME280;33676;51.006;17.180;2023-09-19T08:08:14;99651.40;;;21.22;98.38
47913;BME280;33676;51.006;17.180;2023-09-19T08:10:44;99653.95;;;21.15;98.31
47913;BME280;33676;51.006;17.180;2023-09-19T08:13:14;99654.19;;;21.08;98.05
47913;BME280;33676;51.006;17.180;2023-09-19T08:15:45;99657.08;;;21.00;97.76
47913;BME280;33676;51.006;17.180;2023-09-19T08:18:15;99660.67;;;20.94;97.62
47913;BME280;33676;51.006;17.180;2023-09-19T08:20:52;99669.77;;;20.90;97.34
47913;BME280;33676;51.006;17.180;2023-09-19T08:23:21;99669.02;;;20.85;97.14
47913;BME280;33676;51.006;17.180;2023-09-19T08:25:50;99669.57;;;20.82;96.99
47913;BME280;33676;51.006;17.180;2023-09-19T08:28:18;99671.79;;;20.81;96.93
47913;BME280;33676;51.006;17.180;2023-09-19T08:30:51;99672.11;;;20.81;96.88
47913;BME280;33676;51.006;17.180;2023-09-19T08:33:20;99671.88;;;20.83;96.88
47913;BME280;33676;51.006;17.180;2023-09-19T08:42:10;99677.80;;;21.04;96.48
47913;BME280;33676;51.006;17.180;2023-09-19T08:48:25;99685.21;;;21.13;95.84
47913;BME280;33676;51.006;17.180;2023-09-19T08:51:02;99687.59;;;21.13;95.79
47913;BME280;33676;51.006;17.180;2023-09-19T08:56:22;99687.61;;;21.19;96.44
47913;BME280;33676;51.006;17.180;2023-09-19T08:59:02;99696.71;;;21.24;96.25
47913;BME280;33676;51.006;17.180;2023-09-19T09:01:35;99692.90;;;21.26;96.00
47913;BME280;33676;51.006;17.180;2023-09-19T09:04:08;99700.86;;;21.29;95.42
47913;BME280;33676;51.006;17.180;2023-09-19T09:07:14;99700.38;;;21.29;94.99
47913;BME280;33676;51.006;17.180;2023-09-19T09:13:21;99703.14;;;21.32;94.45
47913;BME280;33676;51.006;17.180;2023-09-19T09:16:05;99708.73;;;21.42;94.20
47913;BME280;33676;51.006;17.180;2023-09-19T09:18:33;99706.90;;;21.53;94.15
47913;BME280;33676;51.006;17.180;2023-09-19T09:21:12;99707.37;;;21.65;93.99
47913;BME280;33676;51.006;17.180;2023-09-19T09:23:42;99717.27;;;21.76;93.91
47913;BME280;33676;51.006;17.180;2023-09-19T09:26:11;99716.34;;;21.86;93.70
47913;BME280;33676;51.006;17.180;2023-09-19T09:28:45;99723.98;;;21.93;93.34
47913;BME280;33676;51.006;17.180;2023-09-19T09:31:24;99726.86;;;22.01;93.17
47913;BME280;33676;51.006;17.180;2023-09-19T09:33:55;99725.17;;;22.10;93.37
47913;BME280;33676;51.006;17.180;2023-09-19T09:36:40;99727.80;;;22.21;92.92
47913;BME280;33676;51.006;17.180;2023-09-19T09:39:10;99731.58;;;22.27;92.54
47913;BME280;33676;51.006;17.180;2023-09-19T09:41:46;99737.58;;;22.35;92.45
47913;BME280;33676;51.006;17.180;2023-09-19T09:46:48;99738.63;;;22.56;91.99
47913;BME280;33676;51.006;17.180;2023-09-19T09:49:25;99735.77;;;22.67;91.68
47913;BME280;33676;51.006;17.180;2023-09-19T09:52:11;99743.25;;;22.67;91.17
47913;BME280;33676;51.006;17.180;2023-09-19T09:55:02;99742.86;;;22.61;91.00
47913;BME280;33676;51.006;17.180;2023-09-19T09:57:34;99749.65;;;22.53;90.49
47913;BME280;33676;51.006;17.180;2023-09-19T10:00:04;99748.73;;;22.44;90.23
47913;BME280;33676;51.006;17.180;2023-09-19T10:02:42;99748.04;;;22.41;90.24
47913;BME280;33676;51.006;17.180;2023-09-19T10:05:19;99754.58;;;22.40;90.25
47913;BME280;33676;51.006;17.180;2023-09-19T10:07:51;99754.66;;;22.38;90.13
47913;BME280;33676;51.006;17.180;2023-09-19T10:10:34;99760.98;;;22.34;90.06
47913;BME280;33676;51.006;17.180;2023-09-19T10:13:11;99761.61;;;22.30;90.03
47913;BME280;33676;51.006;17.180;2023-09-19T10:15:48;99766.95;;;22.25;89.81
47913;BME280;33676;51.006;17.180;2023-09-19T10:18:32;99774.27;;;22.21;89.58
47913;BME280;33676;51.006;17.180;2023-09-19T10:21:04;99775.75;;;22.14;88.70
47913;BME280;33676;51.006;17.180;2023-09-19T10:23:34;99771.73;;;22.07;88.58
47913;BME280;33676;51.006;17.180;2023-09-19T10:26:05;99778.84;;;22.04;88.52
47913;BME280;33676;51.006;17.180;2023-09-19T10:28:34;99779.34;;;21.99;88.38
47913;BME280;33676;51.006;17.180;2023-09-19T10:31:04;99780.52;;;21.97;88.77
47913;BME280;33676;51.006;17.180;2023-09-19T10:33:36;99784.84;;;21.99;88.85
47913;BME280;33676;51.006;17.180;2023-09-19T10:36:06;99782.90;;;22.04;88.96
47913;BME280;33676;51.006;17.180;2023-09-19T10:38:37;99788.95;;;22.09;88.82
47913;BME280;33676;51.006;17.180;2023-09-19T10:41:10;99781.34;;;22.11;88.79
47913;BME280;33676;51.006;17.180;2023-09-19T10:43:40;99783.80;;;22.19;88.96
47913;BME280;33676;51.006;17.180;2023-09-19T10:46:13;99785.62;;;22.36;89.00
47913;BME280;33676;51.006;17.180;2023-09-19T10:48:41;99791.36;;;22.68;89.36
47913;BME280;33676;51.006;17.180;2023-09-19T10:51:16;99789.75;;;22.98;89.14
47913;BME280;33676;51.006;17.180;2023-09-19T10:53:54;99793.83;;;23.15;88.59
47913;BME280;33676;51.006;17.180;2023-09-19T10:56:32;99791.51;;;23.11;87.88
47913;BME280;33676;51.006;17.180;2023-09-19T10:59:13;99799.75;;;23.17;87.18
47913;BME280;33676;51.006;17.180;2023-09-19T11:01:53;99796.66;;;23.26;86.69
47913;BME280;33676;51.006;17.180;2023-09-19T11:04:34;99797.02;;;23.41;86.42
47913;BME280;33676;51.006;17.180;2023-09-19T11:07:10;99798.58;;;23.49;85.11
47913;BME280;33676;51.006;17.180;2023-09-19T11:09:54;99793.63;;;23.51;84.51
47913;BME280;33676;51.006;17.180;2023-09-19T11:14:55;99797.10;;;23.80;83.30
47913;BME280;33676;51.006;17.180;2023-09-19T11:17:33;99794.81;;;24.02;83.08
47913;BME280;33676;51.006;17.180;2023-09-19T11:30:39;99785.91;;;25.34;81.00
47913;BME280;33676;51.006;17.180;2023-09-19T11:33:22;99790.15;;;25.46;80.20
47913;BME280;33676;51.006;17.180;2023-09-19T11:36:14;99785.14;;;25.61;79.66
47913;BME280;33676;51.006;17.180;2023-09-19T11:49:29;99786.94;;;25.75;77.55
47913;BME280;33676;51.006;17.180;2023-09-19T11:52:05;99787.96;;;25.84;76.67
47913;BME280;33676;51.006;17.180;2023-09-19T11:54:35;99788.63;;;25.84;77.06
47913;BME280;33676;51.006;17.180;2023-09-19T11:57:09;99799.70;;;25.87;76.31
47913;BME280;33676;51.006;17.180;2023-09-19T11:59:39;99798.21;;;25.81;74.71
47913;BME280;33676;51.006;17.180;2023-09-19T12:02:12;99799.59;;;25.59;73.89
47913;BME280;33676;51.006;17.180;2023-09-19T12:04:46;99803.51;;;25.30;73.26
47913;BME280;33676;51.006;17.180;2023-09-19T12:07:18;99808.30;;;25.03;73.14
47913;BME280;33676;51.006;17.180;2023-09-19T12:09:49;99820.19;;;24.80;72.86
47913;BME280;33676;51.006;17.180;2023-09-19T12:12:26;99812.69;;;24.55;72.81
47913;BME280;33676;51.006;17.180;2023-09-19T12:14:58;99803.65;;;24.48;73.54
47913;BME280;33676;51.006;17.180;2023-09-19T12:17:41;99802.66;;;24.68;73.65
47913;BME280;33676;51.006;17.180;2023-09-19T12:20:11;99807.58;;;24.91;73.69
47913;BME280;33676;51.006;17.180;2023-09-19T12:22:43;99805.68;;;25.08;73.21
47913;BME280;33676;51.006;17.180;2023-09-19T12:25:13;99803.56;;;25.26;72.98
47913;BME280;33676;51.006;17.180;2023-09-19T12:27:49;99809.65;;;25.21;71.47
47913;BME280;33676;51.006;17.180;2023-09-19T12:30:28;99806.48;;;25.14;71.03
47913;BME280;33676;51.006;17.180;2023-09-19T12:32:57;99805.45;;;25.21;71.19
47913;BME280;33676;51.006;17.180;2023-09-19T12:35:32;99803.27;;;25.18;71.59
47913;BME280;33676;51.006;17.180;2023-09-19T12:38:04;99802.27;;;25.15;71.35
47913;BME280;33676;51.006;17.180;2023-09-19T12:40:34;99805.59;;;25.20;71.34
47913;BME280;33676;51.006;17.180;2023-09-19T12:43:06;99801.52;;;25.31;70.85
47913;BME280;33676;51.006;17.180;2023-09-19T12:45:35;99801.54;;;25.53;70.64
47913;BME280;33676;51.006;17.180;2023-09-19T12:48:26;99804.85;;;25.89;70.27
47913;BME280;33676;51.006;17.180;2023-09-19T12:51:11;99800.73;;;26.39;69.95
47913;BME280;33676;51.006;17.180;2023-09-19T12:53:46;99800.80;;;26.88;69.30
47913;BME280;33676;51.006;17.180;2023-09-19T12:56:17;99800.62;;;27.27;68.59
47913;BME280;33676;51.006;17.180;2023-09-19T12:59:29;99796.95;;;27.64;68.58
47913;BME280;33676;51.006;17.180;2023-09-19T13:02:05;99798.42;;;28.13;68.51
47913;BME280;33676;51.006;17.180;2023-09-19T13:04:53;99794.73;;;28.46;67.18
47913;BME280;33676;51.006;17.180;2023-09-19T13:07:45;99793.70;;;28.62;66.14
47913;BME280;33676;51.006;17.180;2023-09-19T13:10:18;99789.88;;;28.75;65.23
47913;BME280;33676;51.006;17.180;2023-09-19T13:12:48;99786.46;;;28.89;65.06
47913;BME280;33676;51.006;17.180;2023-09-19T13:15:17;99780.05;;;29.02;64.92
47913;BME280;33676;51.006;17.180;2023-09-19T13:17:49;99776.08;;;29.15;63.94
47913;BME280;33676;51.006;17.180;2023-09-19T13:20:27;99768.94;;;29.30;63.92
47913;BME280;33676;51.006;17.180;2023-09-19T13:23:26;99762.64;;;29.58;64.55
47913;BME280;33676;51.006;17.180;2023-09-19T13:25:55;99764.09;;;30.00;64.30
47913;BME280;33676;51.006;17.180;2023-09-19T13:28:24;99764.46;;;30.24;63.08
47913;BME280;33676;51.006;17.180;2023-09-19T13:30:53;99764.58;;;30.42;62.79
47913;BME280;33676;51.006;17.180;2023-09-19T13:33:23;99759.25;;;30.64;62.49
47913;BME280;33676;51.006;17.180;2023-09-19T13:35:51;99758.27;;;30.90;62.24
47913;BME280;33676;51.006;17.180;2023-09-19T13:38:20;99765.58;;;31.13;61.59
47913;BME280;33676;51.006;17.180;2023-09-19T13:40:50;99766.40;;;31.24;61.23
47913;BME280;33676;51.006;17.180;2023-09-19T13:43:20;99759.05;;;31.36;60.87
47913;BME280;33676;51.006;17.180;2023-09-19T13:45:50;99759.19;;;31.48;60.17
47913;BME280;33676;51.006;17.180;2023-09-19T13:48:18;99759.03;;;31.51;59.83
47913;BME280;33676;51.006;17.180;2023-09-19T13:50:50;99762.34;;;31.53;58.71
47913;BME280;33676;51.006;17.180;2023-09-19T13:53:19;99757.72;;;31.44;57.70
47913;BME280;33676;51.006;17.180;2023-09-19T13:55:47;99758.08;;;31.32;57.67
47913;BME280;33676;51.006;17.180;2023-09-19T13:58:16;99755.16;;;31.39;57.94
47913;BME280;33676;51.006;17.180;2023-09-19T14:00:45;99753.94;;;31.57;57.90
47913;BME280;33676;51.006;17.180;2023-09-19T14:03:14;99756.61;;;31.74;57.87
47913;BME280;33676;51.006;17.180;2023-09-19T14:07:20;99754.11;;;32.18;57.86
47913;BME280;33676;51.006;17.180;2023-09-19T14:09:49;99746.71;;;32.44;57.63
47913;BME280;33676;51.006;17.180;2023-09-19T14:12:18;99747.70;;;32.70;57.46
47913;BME280;33676;51.006;17.180;2023-09-19T14:14:46;99746.87;;;32.91;57.15
47913;BME280;33676;51.006;17.180;2023-09-19T14:17:14;99749.64;;;33.12;57.39
47913;BME280;33676;51.006;17.180;2023-09-19T14:19:45;99746.84;;;33.36;57.33
47913;BME280;33676;51.006;17.180;2023-09-19T14:22:14;99749.55;;;33.66;57.59
47913;BME280;33676;51.006;17.180;2023-09-19T14:24:42;99752.73;;;33.97;57.41
47913;BME280;33676;51.006;17.180;2023-09-19T14:27:12;99753.45;;;34.11;56.16
47913;BME280;33676;51.006;17.180;2023-09-19T14:29:40;99750.55;;;34.08;55.43
47913;BME280;33676;51.006;17.180;2023-09-19T14:32:09;99746.58;;;34.19;55.34
47913;BME280;33676;51.006;17.180;2023-09-19T14:34:38;99744.70;;;34.42;55.62
47913;BME280;33676;51.006;17.180;2023-09-19T14:37:10;99750.59;;;34.69;55.18
47913;BME280;33676;51.006;17.180;2023-09-19T14:39:41;99749.79;;;34.82;54.18
47913;BME280;33676;51.006;17.180;2023-09-19T14:42:13;99749.63;;;34.83;53.47
47913;BME280;33676;51.006;17.180;2023-09-19T14:44:46;99754.52;;;34.92;53.52
47913;BME280;33676;51.006;17.180;2023-09-19T14:47:16;99751.78;;;34.93;53.23
47913;BME280;33676;51.006;17.180;2023-09-19T14:49:45;99753.54;;;34.41;53.42
47913;BME280;33676;51.006;17.180;2023-09-19T14:52:14;99752.00;;;33.66;53.25
47913;BME280;33676;51.006;17.180;2023-09-19T14:54:44;99751.90;;;32.90;53.07
47913;BME280;33676;51.006;17.180;2023-09-19T14:57:12;99758.65;;;32.15;53.17
47913;BME280;33676;51.006;17.180;2023-09-19T14:59:43;99760.42;;;31.48;53.21
47913;BME280;33676;51.006;17.180;2023-09-19T15:02:11;99761.64;;;30.92;53.46
47913;BME280;33676;51.006;17.180;2023-09-19T15:04:40;99757.75;;;31.11;54.25
47913;BME280;33676;51.006;17.180;2023-09-19T15:07:15;99756.49;;;31.72;54.63
47913;BME280;33676;51.006;17.180;2023-09-19T15:09:43;99756.48;;;32.11;54.02
47913;BME280;33676;51.006;17.180;2023-09-19T15:12:12;99757.27;;;32.33;53.89
47913;BME280;33676;51.006;17.180;2023-09-19T15:14:43;99757.88;;;32.52;54.14
47913;BME280;33676;51.006;17.180;2023-09-19T15:17:11;99760.98;;;32.67;53.99
47913;BME280;33676;51.006;17.180;2023-09-19T15:19:40;99758.27;;;32.64;53.09
47913;BME280;33676;51.006;17.180;2023-09-19T15:22:09;99760.39;;;32.46;52.92
47913;BME280;33676;51.006;17.180;2023-09-19T15:24:39;99763.94;;;32.33;52.91
47913;BME280;33676;51.006;17.180;2023-09-19T15:27:07;99761.37;;;32.21;53.51
47913;BME280;33676;51.006;17.180;2023-09-19T15:29:36;99765.34;;;32.10;53.68
47913;BME280;33676;51.006;17.180;2023-09-19T15:32:05;99765.01;;;31.75;53.22
47913;BME280;33676;51.006;17.180;2023-09-19T15:34:33;99767.95;;;31.23;53.33
47913;BME280;33676;51.006;17.180;2023-09-19T15:37:02;99773.04;;;30.74;53.64
47913;BME280;33676;51.006;17.180;2023-09-19T15:39:31;99775.14;;;29.99;52.84
47913;BME280;33676;51.006;17.180;2023-09-19T15:42:03;99772.54;;;29.57;53.35
47913;BME280;33676;51.006;17.180;2023-09-19T15:44:31;99775.52;;;29.89;54.03
47913;BME280;33676;51.006;17.180;2023-09-19T15:47:01;99774.30;;;30.39;54.34
47913;BME280;33676;51.006;17.180;2023-09-19T15:49:29;99774.40;;;30.76;54.57
47913;BME280;33676;51.006;17.180;2023-09-19T15:51:58;99775.85;;;31.44;55.10
47913;BME280;33676;51.006;17.180;2023-09-19T15:54:26;99774.83;;;32.40;56.01
47913;BME280;33676;51.006;17.180;2023-09-19T15:56:56;99774.84;;;32.92;55.75
47913;BME280;33676;51.006;17.180;2023-09-19T15:59:24;99779.90;;;32.88;55.53
47913;BME280;33676;51.006;17.180;2023-09-19T16:01:53;99784.33;;;32.65;55.39
47913;BME280;33676;51.006;17.180;2023-09-19T16:04:21;99783.37;;;32.35;55.17
47913;BME280;33676;51.006;17.180;2023-09-19T16:06:50;99784.21;;;32.00;55.01
47913;BME280;33676;51.006;17.180;2023-09-19T16:09:20;99791.27;;;31.72;54.53
47913;BME280;33676;51.006;17.180;2023-09-19T16:11:48;99790.71;;;31.37;54.39
47913;BME280;33676;51.006;17.180;2023-09-19T16:14:17;99788.78;;;30.94;54.40
47913;BME280;33676;51.006;17.180;2023-09-19T16:16:46;99793.49;;;30.53;54.61
47913;BME280;33676;51.006;17.180;2023-09-19T16:19:15;99789.20;;;30.11;54.64
47913;BME280;33676;51.006;17.180;2023-09-19T16:21:44;99791.77;;;29.63;54.91
47913;BME280;33676;51.006;17.180;2023-09-19T16:24:13;99795.64;;;29.15;54.97
47913;BME280;33676;51.006;17.180;2023-09-19T16:26:41;99794.98;;;28.61;55.04
47913;BME280;33676;51.006;17.180;2023-09-19T16:29:09;99796.13;;;28.19;55.40
47913;BME280;33676;51.006;17.180;2023-09-19T16:31:38;99796.56;;;27.85;55.86
47913;BME280;33676;51.006;17.180;2023-09-19T16:34:07;99798.77;;;27.49;56.13
47913;BME280;33676;51.006;17.180;2023-09-19T16:36:37;99799.46;;;27.12;56.27
47913;BME280;33676;51.006;17.180;2023-09-19T16:39:06;99799.52;;;26.77;56.66
47913;BME280;33676;51.006;17.180;2023-09-19T16:41:36;99805.02;;;26.45;56.89
47913;BME280;33676;51.006;17.180;2023-09-19T16:44:05;99805.64;;;26.15;57.34
47913;BME280;33676;51.006;17.180;2023-09-19T16:46:36;99806.35;;;25.89;57.71
47913;BME280;33676;51.006;17.180;2023-09-19T16:49:05;99808.19;;;25.65;58.14
47913;BME280;33676;51.006;17.180;2023-09-19T16:51:34;99811.06;;;25.39;58.56
47913;BME280;33676;51.006;17.180;2023-09-19T16:54:03;99810.08;;;25.14;58.99
47913;BME280;33676;51.006;17.180;2023-09-19T16:56:32;99813.64;;;24.91;59.31
47913;BME280;33676;51.006;17.180;2023-09-19T16:59:03;99814.54;;;24.65;59.73
47913;BME280;33676;51.006;17.180;2023-09-19T17:01:34;99817.32;;;24.40;60.19
47913;BME280;33676;51.006;17.180;2023-09-19T17:04:04;99820.98;;;24.18;60.34
47913;BME280;33676;51.006;17.180;2023-09-19T17:06:34;99826.36;;;23.98;60.65
47913;BME280;33676;51.006;17.180;2023-09-19T17:09:02;99830.19;;;23.79;61.01